Flight Track Log - Related Links

Times and Time Zones

All times are in EDT time to prevent confusion due to time zone crossing. See the N3738B flight status page for this flight to view local times or setup timezone preferences in your user account.

Time Position Orientation Groundspeed Altitude Reporting Facility
EDT Latitude Longitude Course Direction KTS MPH feet Rate Location/Type
Wed 11:18:54 AM 33.4333 -111.9833 83° East 197 227 1,900  Level Phoenix TRACON
Wed 11:19:48 AM 33.4333 -111.9167 90° East 221 254 3,300 1,622 Climbing Phoenix TRACON
Wed 11:20:08 AM 33.4375 -111.8933 78° East 237 273 3,900 2,634 Climbing Albuquerque Center
Wed 11:21:00 AM 33.4720 -111.5442 81° East  Level FlightAware Approximate
Wed 11:21:10 AM 33.4225 -111.8044 101° East 277 319 6,900  Level Albuquerque Center
Wed 11:22:00 AM 33.4928 -111.3926 81° East  Level FlightAware Approximate
Wed 11:22:12 AM 33.4353 -111.7100 81° East 297 342 9,600  Level Albuquerque Center
Wed 11:23:00 AM 33.5134 -111.2408 81° East  Level FlightAware Approximate
Wed 11:23:14 AM 33.4569 -111.6039 76° East 336 387 10,900  Level Albuquerque Center
Wed 11:24:00 AM 33.5296 -111.0883 83° East  Level FlightAware Approximate
Wed 11:24:16 AM 33.4822 -111.4761 77° East 396 456 12,600  Level Albuquerque Center
Wed 11:25:18 AM 33.5097 -111.3119 79° East 419 482 15,700 2,419 Climbing Albuquerque Center
Wed 11:26:20 AM 33.5250 -111.1700 83° East 432 497 17,600 2,032 Climbing Albuquerque Center
Wed 11:27:22 AM 33.5414 -111.0225 82° East 447 514 19,900 2,129 Climbing Albuquerque Center
Wed 11:28:24 AM 33.5628 -110.8733 80° East 452 520 22,000 1,597 Climbing Albuquerque Center
Wed 11:29:26 AM 33.6089 -110.7328 68° East 454 522 23,200 1,403 Climbing Albuquerque Center
Wed 11:30:28 AM 33.6656 -110.5547 69° East 466 536 24,900 1,403 Climbing Albuquerque Center
Wed 11:31:30 AM 33.7147 -110.4019 69° East 478 550 26,100 1,210 Climbing Albuquerque Center
Wed 11:32:32 AM 33.7628 -110.2472 69° East 488 562 27,400 1,355 Climbing Albuquerque Center
Wed 11:33:34 AM 33.8128 -110.0919 69° East 496 571 28,900 1,500 Climbing Albuquerque Center
Wed 11:34:36 AM 33.8639 -109.9358 68° East 502 578 30,500 1,645 Climbing Albuquerque Center
Wed 11:35:38 AM 33.9217 -109.7528 69° East 495 570 32,300 1,500 Climbing Albuquerque Center
Wed 11:36:40 AM 33.9689 -109.6011 69° East 490 564 33,600 1,065 Climbing Albuquerque Center
Wed 11:37:42 AM 34.0161 -109.4508 69° East 485 558 34,500 919 Climbing Albuquerque Center
Wed 11:38:44 AM 34.0636 -109.2981 69° East 487 560 35,500 871 Climbing Albuquerque Center
Wed 11:39:46 AM 34.1114 -109.1469 69° East 486 559 36,300 726 Climbing Albuquerque Center
Wed 11:40:48 AM 34.1581 -108.9931 70° East 489 563 37,000 339 Climbing Albuquerque Center
Wed 11:41:50 AM 34.1792 -108.7958 83° East 496 571 37,000  Level Albuquerque Center
Wed 11:42:52 AM 34.1964 -108.6328 83° East 495 570 37,000  Level Albuquerque Center
Wed 11:43:54 AM 34.2117 -108.4706 83° East 491 565 37,000  Level Albuquerque Center
Wed 11:44:56 AM 34.2267 -108.3064 84° East 493 567 37,000 -48 Level Albuquerque Center
Wed 11:45:58 AM 34.2422 -108.1219 84° East 495 570 36,900  Descending Albuquerque Center
Wed 11:47:00 AM 34.2567 -107.9569 84° East 494 568 37,000  Climbing Albuquerque Center
Wed 11:48:02 AM 34.2719 -107.7917 84° East 494 568 36,900  Descending Albuquerque Center
Wed 11:49:04 AM 34.2869 -107.6258 84° East 495 570 37,000 48 Climbing Albuquerque Center
Wed 11:50:06 AM 34.3017 -107.4592 84° East 498 573 37,000  Level Albuquerque Center
Wed 11:51:08 AM 34.3172 -107.2878 84° East 493 567 37,000  Level Albuquerque Center
Wed 11:52:10 AM 34.3342 -107.0900 84° East 495 570 37,000  Level Albuquerque Center
Wed 11:53:12 AM 34.3475 -106.9289 84° East 490 564 37,000  Level Albuquerque Center
Wed 11:54:14 AM 34.3603 -106.7644 85° East 492 566 37,000  Level Albuquerque Center
Wed 11:55:16 AM 34.3733 -106.6014 84° East 491 565 37,000  Level Albuquerque Center
Wed 11:56:18 AM 34.3867 -106.4394 84° East 490 564 37,000  Level Albuquerque Center
Wed 11:57:20 AM 34.3989 -106.2769 85° East 488 562 37,000  Level Albuquerque Center
Wed 11:58:22 AM 34.4133 -106.0783 85° East 482 555 37,000  Level Albuquerque Center
Wed 11:59:24 AM 34.4256 -105.9125 85° East 487 560 37,000  Level Albuquerque Center
Wed 12:00:26 PM 34.4386 -105.7497 84° East 485 558 37,000  Level Albuquerque Center
Wed 12:01:28 PM 34.4508 -105.5856 85° East 485 558 37,000  Level Albuquerque Center
Wed 12:02:30 PM 34.4611 -105.4208 86° East 487 560 37,000  Level Albuquerque Center
Wed 12:03:32 PM 34.4725 -105.2561 85° East 487 560 37,000  Level Albuquerque Center
Wed 12:04:34 PM 34.4847 -105.0908 85° East 488 562 37,000  Level Albuquerque Center
Wed 12:05:36 PM 34.4983 -104.9008 85° East 485 558 37,000  Level Albuquerque Center
Wed 12:06:38 PM 34.5086 -104.7400 86° East 479 551 37,000  Level Albuquerque Center
Wed 12:07:40 PM 34.5194 -104.5778 85° East 480 552 37,000  Level Albuquerque Center
Wed 12:08:42 PM 34.5303 -104.4153 85° East 481 554 37,000  Level Albuquerque Center
Wed 12:09:44 PM 34.5397 -104.2525 86° East 482 555 37,000  Level Albuquerque Center
Wed 12:10:46 PM 34.5489 -104.0925 86° East 477 549 37,000  Level Albuquerque Center
Wed 12:11:48 PM 34.5606 -103.9061 86° East 475 547 37,000  Level Albuquerque Center
Wed 12:12:50 PM 34.5697 -103.7464 86° East 474 545 37,000  Level Albuquerque Center
Wed 12:13:52 PM 34.5786 -103.5886 86° East 469 540 37,000  Level Albuquerque Center
Wed 12:14:54 PM 34.5872 -103.4286 86° East 472 543 37,000  Level Albuquerque Center
Wed 12:15:56 PM 34.5958 -103.2672 86° East 475 547 37,000  Level Albuquerque Center
Wed 12:16:58 PM 34.6044 -103.1061 86° East 476 548 37,000  Level Albuquerque Center
Wed 12:18:00 PM 34.6144 -102.9181 86° East 476 548 37,000  Level Albuquerque Center
Wed 12:19:02 PM 34.6217 -102.7564 87° East 477 549 37,000  Level Albuquerque Center
Wed 12:20:05 PM 34.6289 -102.6089 87° East 476 548 37,000  Level Albuquerque Center
Wed 12:21:07 PM 34.6356 -102.4497 87° East 475 547 37,000  Level Albuquerque Center
Wed 12:22:09 PM 34.6447 -102.2589 87° East 475 547 37,000  Level Albuquerque Center
Wed 12:23:11 PM 34.6517 -102.0997 87° East 474 545 37,000  Level Albuquerque Center
Wed 12:24:13 PM 34.6586 -101.9394 87° East 478 550 37,000  Level Albuquerque Center
Wed 12:25:15 PM 34.6650 -101.7811 87° East 476 548 37,000  Level Albuquerque Center
Wed 12:26:17 PM 34.6717 -101.6231 87° East 473 544 37,000  Level Albuquerque Center
Wed 12:27:19 PM 34.6789 -101.4322 87° East 474 545 37,000  Level Albuquerque Center
Wed 12:28:21 PM 34.6853 -101.2772 87° East 469 540 37,000  Level Albuquerque Center
Wed 12:29:23 PM 34.6908 -101.1208 87° East 467 537 37,000  Level Albuquerque Center
Wed 12:30:25 PM 34.6961 -100.9650 88° East 466 536 37,000  Level Albuquerque Center
Wed 12:31:27 PM 34.7008 -100.8081 88° East 467 537 37,000  Level Albuquerque Center
Wed 12:32:29 PM 34.7075 -100.6194 87° East 468 539 37,000  Level Albuquerque Center
Wed 12:33:31 PM 34.7125 -100.4631 88° East 466 536 37,000  Level Albuquerque Center
Wed 12:34:33 PM 34.7169 -100.3183 88° East 468 539 37,000  Level Albuquerque Center
Wed 12:35:35 PM 34.7217 -100.1286 88° East 469 540 37,000  Level Albuquerque Center
Wed 12:36:37 PM 34.7261 -99.9725 88° East 465 535 37,000  Level Albuquerque Center
Wed 12:37:39 PM 34.7294 -99.8161 88° East 464 534 37,000  Level Albuquerque Center
Wed 12:38:41 PM 34.7344 -99.6619 88° East 460 529 37,000  Level Albuquerque Center
Wed 12:39:30 PM 34.7353 -99.5361 90° East 458 527 37,000  Level Fort Worth Center
Wed 12:40:31 PM 34.7378 -99.3869 89° East 458 527 37,000  Level Fort Worth Center
Wed 12:41:31 PM 34.7422 -99.2303 88° East 458 527 37,000  Level Fort Worth Center
Wed 12:42:31 PM 34.7444 -99.0739 89° East 458 527 37,000  Level Fort Worth Center
Wed 12:43:31 PM 34.7464 -98.9197 89° East 458 527 37,000  Level Fort Worth Center
Wed 12:44:30 PM 34.7503 -98.7656 88° East 458 527 37,000  Level Fort Worth Center
Wed 12:45:30 PM 34.7517 -98.6114 89° East 458 527 37,000  Level Fort Worth Center
Wed 12:46:31 PM 34.7553 -98.4472 88° East 453 521 37,000  Level Fort Worth Center
Wed 12:47:30 PM 34.7586 -98.2931 88° East 453 521 37,000  Level Fort Worth Center
Wed 12:48:30 PM 34.7575 -98.1414 90° East 453 521 37,000  Level Fort Worth Center
Wed 12:49:30 PM 34.7603 -97.9872 89° East 453 521 37,000  Level Fort Worth Center
Wed 12:50:30 PM 34.7611 -97.8331 90° East 453 521 37,000  Level Fort Worth Center
Wed 12:51:30 PM 34.7614 -97.6764 90° East 459 528 37,000  Level Fort Worth Center
Wed 12:52:30 PM 34.7594 -97.5247 91° East 459 528 37,000  Level Fort Worth Center
Wed 12:53:30 PM 34.7617 -97.3731 89° East 459 528 37,000  Level Fort Worth Center
Wed 12:54:30 PM 34.7617 -97.2164 90° East 459 528 37,000  Level Fort Worth Center
Wed 12:55:31 PM 34.7611 -97.0622 90° East 459 528 37,000  Level Fort Worth Center
Wed 12:56:30 PM 34.7628 -96.9081 89° East 459 528 37,000  Level Fort Worth Center
Wed 12:57:30 PM 34.7622 -96.7539 90° East 459 528 37,000  Level Fort Worth Center
Wed 12:58:30 PM 34.7633 -96.6022 89° East 453 521 37,000  Level Fort Worth Center
Wed 12:59:30 PM 34.7622 -96.4506 90° East 453 521 37,000  Level Fort Worth Center
Wed 01:00:30 PM 34.7608 -96.2989 91° East 448 516 37,000  Level Fort Worth Center
Wed 01:01:30 PM 34.7617 -96.1497 90° East 448 516 37,000  Level Fort Worth Center
Wed 01:02:30 PM 34.7600 -95.9981 91° East 438 504 37,000  Level Fort Worth Center
Wed 01:03:30 PM 34.7583 -95.8464 91° East 438 504 37,000  Level Fort Worth Center
Wed 01:04:30 PM 34.7583 -95.6922 90° East 438 504 37,000  Level Fort Worth Center
Wed 01:06:09 PM 34.7592 -95.4581 90° East 425 489 37,000  Level Memphis Center
Wed 01:07:09 PM 34.7547 -95.3061 92° East 438 504 37,000  Level Memphis Center
Wed 01:08:09 PM 34.7525 -95.1544 91° East 451 519 37,000  Level Memphis Center
Wed 01:09:09 PM 34.7522 -94.9978 90° East 451 519 37,000  Level Memphis Center
Wed 01:10:09 PM 34.7481 -94.8256 92° East 465 535 37,000  Level Memphis Center
Wed 01:11:09 PM 34.7450 -94.6714 91° East 460 529 37,000  Level Memphis Center
Wed 01:12:09 PM 34.7442 -94.5144 90° East 460 529 37,000  Level Memphis Center
Wed 01:13:09 PM 34.7408 -94.3628 91° East 460 529 37,000  Level Memphis Center
Wed 01:14:09 PM 34.7372 -94.2111 92° East 460 529 37,000  Level Memphis Center
Wed 01:15:09 PM 34.7336 -94.0517 92° East 460 529 37,000  Level Memphis Center
Wed 01:16:09 PM 34.7314 -93.9175 91° East 460 529 37,000 -450 Level Memphis Center
Wed 01:17:09 PM 34.7292 -93.7658 91° East 455 524 36,100 -900 Descending Memphis Center
Wed 01:18:09 PM 34.7250 -93.6142 92° East 450 518 35,200 -600 Descending Memphis Center
Wed 01:19:09 PM 34.7206 -93.4650 92° East 444 511 34,900 -650 Descending Memphis Center
Wed 01:20:09 PM 34.7178 -93.3133 91° East 444 511 33,900 -950 Descending Memphis Center
Wed 01:21:09 PM 34.7131 -93.1639 92° East 444 511 33,000 -450 Descending Memphis Center
Wed 01:22:09 PM 34.7078 -93.0147 92° East 438 504 33,000  Level Memphis Center
Wed 01:23:09 PM 34.7006 -92.8631 93° East 443 510 33,000  Level Memphis Center
Wed 01:24:09 PM 34.6972 -92.7189 92° East 437 503 33,000  Level Memphis Center
Wed 01:25:09 PM 34.6917 -92.5647 92° East 444 511 33,000  Level Memphis Center
Wed 01:26:09 PM 34.6881 -92.4156 92° East 439 505 33,000  Level Memphis Center
Wed 01:27:09 PM 34.6861 -92.2664 91° East 439 505 33,000  Level Memphis Center
Wed 01:28:09 PM 34.6717 -92.1197 97° East 438 504 33,000  Level Memphis Center
Wed 01:29:09 PM 34.6300 -91.9522 107° East 462 532 33,000  Level Memphis Center
Wed 01:30:09 PM 34.6047 -91.8031 102° East 448 516 33,000  Level Memphis Center
Wed 01:31:09 PM 34.5747 -91.6764 106° East 442 509 33,000 -350 Level Memphis Center
Wed 01:32:09 PM 34.5428 -91.5294 105° East 442 509 32,300 -1,350 Descending Memphis Center
Wed 01:33:09 PM 34.5108 -91.3881 105° East 432 497 30,300 -2,200 Descending Memphis Center
Wed 01:34:09 PM 34.4825 -91.2492 104° East 432 497 27,900 -2,300 Descending Memphis Center
Wed 01:35:09 PM 34.4542 -91.1128 104° East 427 491 25,700 -2,250 Descending Memphis Center
Wed 01:36:09 PM 34.4278 -90.9842 104° East 403 464 23,400 -2,250 Descending Memphis Center
Wed 01:37:09 PM 34.4472 -90.8583 79° East 372 428 21,200 -2,150 Descending Memphis Center
Wed 01:38:09 PM 34.5228 -90.7453 51° Northeast 371 427 19,100 -2,150 Descending Memphis Center
Wed 01:39:09 PM 34.5919 -90.6472 49° Northeast 383 441 16,900 -1,550 Descending Memphis Center
Wed 01:40:09 PM 34.6567 -90.5464 52° Northeast 377 434 16,000 -650 Descending Memphis Center
Wed 01:41:09 PM 34.7111 -90.4633 51° Northeast 340 391 15,600 -1,050 Descending Memphis Center
Wed 01:42:09 PM 34.7611 -90.3850 52° Northeast 305 351 13,900 -1,750 Descending Memphis Center
Wed 01:43:09 PM 34.8133 -90.3064 51° Northeast 294 338 12,100 -1,650 Descending Memphis Center
Wed 01:44:09 PM 34.8633 -90.2281 52° Northeast 294 338 10,600 -1,300 Descending Memphis Center
Wed 01:45:09 PM 34.9092 -90.1569 52° Northeast 288 331 9,500 -850 Descending Memphis Center
Wed 01:46:09 PM 34.9569 -90.1114 38° Northeast 261 300 8,900 -356 Descending Memphis Center
Wed 01:47:07 PM 35.0167 -90.1167 356° North 242 278 8,800 -818 Descending KMEM
Wed 01:47:59 PM 35.0833 -90.1000 12° North 237 273 7,400 -1,661 Descending KMEM
Wed 01:48:59 PM 35.1500 -90.1000 360° North 245 282 5,700 -1,632 Descending KMEM
Wed 01:49:53 PM 35.2167 -90.1000 360° North 244 281 4,300 -1,421 Descending KMEM
Wed 01:50:53 PM 35.2333 -90.0333 73° East 203 234 3,000 -1,300 Descending KMEM

Login

Don't have an account? Register now (free) for customized features, flight alerts, and more!